Key West, FL

12:31 AM EDT on August 29, 2015 (GMT -0400)
Key West International | | Change Station
CLOSE
Current Station
Airport
Location: Key West,
Elevation: 0 ft
Nearby Weather Stations

Elev 0 ft 24.56 °N, 81.75 °W | Updated 15 minutes ago

Light Rain
Light Rain
77 °F
Feels Like 77 °F
N
9
Wind Variable Wind from ENE

Today
High -- | Low -- °F
--% Chance of Precip.
Yesterday
High -- | Low -- °F
Precip. -- in
7:07 AM 7:48 PM
Waxing Gibbous, 99% visible
Pressure 30.05 in
Visibility 8.0 miles
Clouds Few 4300 ft
Mostly Cloudy 6000 ft
Mostly Cloudy 9500 ft
Dew Point 75 °F
Humidity 94%
Rainfall 0.00 in
Snow Depth Not available.
UV 0 out of 12
Pollen 5.10 out of 12
Air Quality Not available.
Flu Activity Not available.
SPECI KEYW 290416Z AUTO 06008KT 8SM VCTS -RA FEW043 BKN060 BKN095 25/24 A3005 RMK AO2 LTG DSNT W TSB0355E10 P0000 T02500239
Pressure 30.05 in
Visibility 8.0 miles
Clouds Few 4300 ft
Mostly Cloudy 6000 ft
Mostly Cloudy 9500 ft
Dew Point 75 °F
Humidity 94%
Rainfall 0.00 in
Snow Depth Not available.
UV 0 out of 12
Pollen 5.10 out of 12
Air Quality Not available.
Flu Activity Not available.
SPECI KEYW 290416Z AUTO 06008KT 8SM VCTS -RA FEW043 BKN060 BKN095 25/24 A3005 RMK AO2 LTG DSNT W TSB0355E10 P0000 T02500239
Nowcast | as of 11:53 PM EDT on August 28, 2015

Through 100 am...isolated to scattered showers and thunderstorms will be dotted across the Keys service area. Most of this activity will be located over and just Gulf side of the Lower and Middle Keys. The stronger activity will produce wind gusts near 35 mph...blinding downpours...and a few lightning strikes. Island locations from Key West through Marathon can expect to be affected by these showers and thunderstorms.

×

10-Day Weather Forecast

×

Almanac

Astronomy

Aug. 29, 2015 Rise Set
Actual Time
Civil Twilight
Nautical Twilight
Astronomical Twilight
Moon
Length of Visible Light
Length of Day
Tomorrow will be .
, % of the Moon is Illuminated

Today's Extremes

State Highs State Lows

Community

WunderPhotos

Upload Photos

1,850,614 photos uploaded!

WunderBlogs® & News

Nearby

Air Quality

  Air Quality AQ Index Pollutant
Not available.

Snow Depth

Station Depth Elevation

Earthquake Activity

City Distance Mag. Time & Date
Minimum magnitude displayed is 2.5.

Coastal Water Temperatures

Place Temperature

Stations

Nearby Weather Stations

Station Location Temp. Windchill Dew Point Humidity Wind Precip. Elev Updated Type